sensor_id;sensor_type;location;lat;lon;timestamp;P1;durP1;ratioP1;P2;durP2;ratioP2
68938;SDS011;59064;45.294;11.816;2023-12-20T00:00:53;113.50;;;76.60;;
68938;SDS011;59064;45.294;11.816;2023-12-20T00:03:19;121.90;;;79.10;;
68938;SDS011;59064;45.294;11.816;2023-12-20T00:05:45;119.70;;;80.20;;
68938;SDS011;59064;45.294;11.816;2023-12-20T00:08:11;111.20;;;70.80;;
68938;SDS011;59064;45.294;11.816;2023-12-20T00:10:36;119.80;;;78.40;;
68938;SDS011;59064;45.294;11.816;2023-12-20T00:13:02;114.70;;;73.60;;
68938;SDS011;59064;45.294;11.816;2023-12-20T00:15:27;121.70;;;78.40;;
68938;SDS011;59064;45.294;11.816;2023-12-20T00:17:53;122.40;;;78.00;;
68938;SDS011;59064;45.294;11.816;2023-12-20T00:20:18;116.70;;;78.50;;
68938;SDS011;59064;45.294;11.816;2023-12-20T00:22:44;116.20;;;75.00;;
68938;SDS011;59064;45.294;11.816;2023-12-20T00:25:10;97.50;;;63.50;;
68938;SDS011;59064;45.294;11.816;2023-12-20T00:27:38;105.50;;;67.00;;
68938;SDS011;59064;45.294;11.816;2023-12-20T00:30:05;106.70;;;70.30;;
68938;SDS011;59064;45.294;11.816;2023-12-20T00:32:31;92.20;;;60.10;;
68938;SDS011;59064;45.294;11.816;2023-12-20T00:34:56;94.50;;;57.60;;
68938;SDS011;59064;45.294;11.816;2023-12-20T00:37:22;88.80;;;55.30;;
68938;SDS011;59064;45.294;11.816;2023-12-20T00:39:49;98.80;;;61.80;;
68938;SDS011;59064;45.294;11.816;2023-12-20T00:42:14;94.80;;;61.00;;
68938;SDS011;59064;45.294;11.816;2023-12-20T00:44:40;84.10;;;52.60;;
68938;SDS011;59064;45.294;11.816;2023-12-20T00:47:05;83.70;;;54.70;;
68938;SDS011;59064;45.294;11.816;2023-12-20T00:49:31;91.00;;;59.90;;
68938;SDS011;59064;45.294;11.816;2023-12-20T00:51:59;80.00;;;53.20;;
68938;SDS011;59064;45.294;11.816;2023-12-20T00:54:25;78.20;;;52.40;;
68938;SDS011;59064;45.294;11.816;2023-12-20T00:56:51;79.80;;;52.40;;
68938;SDS011;59064;45.294;11.816;2023-12-20T00:59:16;79.40;;;52.30;;
68938;SDS011;59064;45.294;11.816;2023-12-20T01:01:42;86.60;;;57.80;;
68938;SDS011;59064;45.294;11.816;2023-12-20T01:04:08;86.20;;;56.50;;
68938;SDS011;59064;45.294;11.816;2023-12-20T01:06:33;88.20;;;57.60;;
68938;SDS011;59064;45.294;11.816;2023-12-20T01:08:59;87.30;;;58.30;;
68938;SDS011;59064;45.294;11.816;2023-12-20T01:11:24;90.70;;;59.00;;
68938;SDS011;59064;45.294;11.816;2023-12-20T01:13:50;92.70;;;62.00;;
68938;SDS011;59064;45.294;11.816;2023-12-20T01:16:15;113.60;;;71.50;;
68938;SDS011;59064;45.294;11.816;2023-12-20T01:18:40;104.00;;;67.00;;
68938;SDS011;59064;45.294;11.816;2023-12-20T01:21:07;85.80;;;57.70;;
68938;SDS011;59064;45.294;11.816;2023-12-20T01:23:32;71.60;;;48.00;;
68938;SDS011;59064;45.294;11.816;2023-12-20T01:25:58;81.10;;;54.40;;
68938;SDS011;59064;45.294;11.816;2023-12-20T01:28:25;81.00;;;51.60;;
68938;SDS011;59064;45.294;11.816;2023-12-20T01:30:51;77.50;;;49.00;;
68938;SDS011;59064;45.294;11.816;2023-12-20T01:33:16;91.60;;;61.10;;
68938;SDS011;59064;45.294;11.816;2023-12-20T01:35:41;85.40;;;55.10;;
68938;SDS011;59064;45.294;11.816;2023-12-20T01:38:07;81.30;;;49.20;;
68938;SDS011;59064;45.294;11.816;2023-12-20T01:40:32;80.60;;;51.70;;
68938;SDS011;59064;45.294;11.816;2023-12-20T01:43:04;83.50;;;52.20;;
68938;SDS011;59064;45.294;11.816;2023-12-20T01:45:33;73.60;;;48.40;;
68938;SDS011;59064;45.294;11.816;2023-12-20T01:47:58;74.50;;;49.60;;
68938;SDS011;59064;45.294;11.816;2023-12-20T01:50:25;82.00;;;53.20;;
68938;SDS011;59064;45.294;11.816;2023-12-20T01:52:52;105.70;;;65.80;;
68938;SDS011;59064;45.294;11.816;2023-12-20T01:55:20;103.70;;;68.00;;
68938;SDS011;59064;45.294;11.816;2023-12-20T01:57:46;83.50;;;53.00;;
68938;SDS011;59064;45.294;11.816;2023-12-20T02:00:12;78.90;;;51.50;;
68938;SDS011;59064;45.294;11.816;2023-12-20T02:02:40;103.30;;;65.90;;
68938;SDS011;59064;45.294;11.816;2023-12-20T02:05:06;109.60;;;70.50;;
68938;SDS011;59064;45.294;11.816;2023-12-20T02:07:32;110.00;;;71.60;;
68938;SDS011;59064;45.294;11.816;2023-12-20T02:10:00;117.80;;;76.20;;
68938;SDS011;59064;45.294;11.816;2023-12-20T02:12:26;118.60;;;75.10;;
68938;SDS011;59064;45.294;11.816;2023-12-20T02:14:51;111.10;;;67.50;;
68938;SDS011;59064;45.294;11.816;2023-12-20T02:17:17;93.60;;;59.40;;
68938;SDS011;59064;45.294;11.816;2023-12-20T02:19:43;91.60;;;57.40;;
68938;SDS011;59064;45.294;11.816;2023-12-20T02:22:09;93.50;;;59.60;;
68938;SDS011;59064;45.294;11.816;2023-12-20T02:24:36;91.30;;;57.40;;
68938;SDS011;59064;45.294;11.816;2023-12-20T02:27:02;90.90;;;57.80;;
68938;SDS011;59064;45.294;11.816;2023-12-20T02:29:28;105.60;;;62.30;;
68938;SDS011;59064;45.294;11.816;2023-12-20T02:31:54;87.50;;;54.40;;
68938;SDS011;59064;45.294;11.816;2023-12-20T02:34:19;84.70;;;52.50;;
68938;SDS011;59064;45.294;11.816;2023-12-20T02:36:45;76.20;;;48.70;;
68938;SDS011;59064;45.294;11.816;2023-12-20T02:39:10;83.50;;;52.40;;
68938;SDS011;59064;45.294;11.816;2023-12-20T02:41:36;87.60;;;53.70;;
68938;SDS011;59064;45.294;11.816;2023-12-20T02:44:01;102.10;;;62.40;;
68938;SDS011;59064;45.294;11.816;2023-12-20T02:46:28;105.00;;;62.60;;
68938;SDS011;59064;45.294;11.816;2023-12-20T02:48:53;107.60;;;65.10;;
68938;SDS011;59064;45.294;11.816;2023-12-20T02:51:19;108.80;;;63.70;;
68938;SDS011;59064;45.294;11.816;2023-12-20T02:53:44;101.20;;;60.80;;
68938;SDS011;59064;45.294;11.816;2023-12-20T02:56:10;95.30;;;57.60;;
68938;SDS011;59064;45.294;11.816;2023-12-20T02:58:35;102.00;;;61.90;;
68938;SDS011;59064;45.294;11.816;2023-12-20T03:01:01;95.50;;;59.40;;
68938;SDS011;59064;45.294;11.816;2023-12-20T03:03:26;92.60;;;57.10;;
68938;SDS011;59064;45.294;11.816;2023-12-20T03:05:52;89.30;;;55.80;;
68938;SDS011;59064;45.294;11.816;2023-12-20T03:08:17;87.50;;;54.30;;
68938;SDS011;59064;45.294;11.816;2023-12-20T03:10:42;75.60;;;48.00;;
68938;SDS011;59064;45.294;11.816;2023-12-20T03:13:08;93.70;;;58.80;;
68938;SDS011;59064;45.294;11.816;2023-12-20T03:15:34;85.40;;;55.20;;
68938;SDS011;59064;45.294;11.816;2023-12-20T03:17:59;92.60;;;57.10;;
68938;SDS011;59064;45.294;11.816;2023-12-20T03:20:25;84.60;;;55.20;;
68938;SDS011;59064;45.294;11.816;2023-12-20T03:22:53;86.60;;;54.50;;
68938;SDS011;59064;45.294;11.816;2023-12-20T03:25:19;79.80;;;50.20;;
68938;SDS011;59064;45.294;11.816;2023-12-20T03:27:44;83.50;;;54.70;;
68938;SDS011;59064;45.294;11.816;2023-12-20T03:30:10;85.40;;;51.70;;
68938;SDS011;59064;45.294;11.816;2023-12-20T03:32:36;74.90;;;47.00;;
68938;SDS011;59064;45.294;11.816;2023-12-20T03:35:03;80.80;;;49.60;;
68938;SDS011;59064;45.294;11.816;2023-12-20T03:37:29;75.70;;;48.50;;
68938;SDS011;59064;45.294;11.816;2023-12-20T03:39:54;77.00;;;49.60;;
68938;SDS011;59064;45.294;11.816;2023-12-20T03:42:20;74.40;;;48.30;;
68938;SDS011;59064;45.294;11.816;2023-12-20T03:44:45;76.30;;;46.20;;
68938;SDS011;59064;45.294;11.816;2023-12-20T03:47:11;77.90;;;48.60;;
68938;SDS011;59064;45.294;11.816;2023-12-20T03:49:36;72.10;;;43.30;;
68938;SDS011;59064;45.294;11.816;2023-12-20T03:52:03;59.40;;;40.00;;
68938;SDS011;59064;45.294;11.816;2023-12-20T03:54:29;64.10;;;40.70;;
68938;SDS011;59064;45.294;11.816;2023-12-20T03:56:55;68.30;;;41.50;;
68938;SDS011;59064;45.294;11.816;2023-12-20T03:59:20;73.40;;;48.10;;
68938;SDS011;59064;45.294;11.816;2023-12-20T04:01:46;85.30;;;54.20;;
68938;SDS011;59064;45.294;11.816;2023-12-20T04:04:12;83.00;;;52.60;;
68938;SDS011;59064;45.294;11.816;2023-12-20T04:06:38;76.30;;;50.30;;
68938;SDS011;59064;45.294;11.816;2023-12-20T04:09:03;75.30;;;48.90;;
68938;SDS011;59064;45.294;11.816;2023-12-20T04:11:29;67.90;;;43.20;;
68938;SDS011;59064;45.294;11.816;2023-12-20T04:13:55;65.50;;;41.80;;
68938;SDS011;59064;45.294;11.816;2023-12-20T04:16:21;67.10;;;44.10;;
68938;SDS011;59064;45.294;11.816;2023-12-20T04:18:46;79.00;;;48.60;;
68938;SDS011;59064;45.294;11.816;2023-12-20T04:21:11;83.70;;;51.70;;
68938;SDS011;59064;45.294;11.816;2023-12-20T04:23:37;90.40;;;55.20;;
68938;SDS011;59064;45.294;11.816;2023-12-20T04:26:02;81.90;;;50.40;;
68938;SDS011;59064;45.294;11.816;2023-12-20T04:28:28;81.30;;;48.90;;
68938;SDS011;59064;45.294;11.816;2023-12-20T04:30:55;81.00;;;49.40;;
68938;SDS011;59064;45.294;11.816;2023-12-20T04:33:21;75.90;;;47.20;;
68938;SDS011;59064;45.294;11.816;2023-12-20T04:35:47;66.50;;;43.50;;
68938;SDS011;59064;45.294;11.816;2023-12-20T04:38:12;65.90;;;40.90;;
68938;SDS011;59064;45.294;11.816;2023-12-20T04:40:38;61.30;;;37.30;;
68938;SDS011;59064;45.294;11.816;2023-12-20T04:43:05;62.70;;;38.30;;
68938;SDS011;59064;45.294;11.816;2023-12-20T04:45:31;80.50;;;46.50;;
68938;SDS011;59064;45.294;11.816;2023-12-20T04:47:57;76.60;;;43.50;;
68938;SDS011;59064;45.294;11.816;2023-12-20T04:50:23;70.60;;;40.80;;
68938;SDS011;59064;45.294;11.816;2023-12-20T04:52:48;64.80;;;39.30;;
68938;SDS011;59064;45.294;11.816;2023-12-20T04:55:14;65.60;;;39.60;;
68938;SDS011;59064;45.294;11.816;2023-12-20T04:57:39;66.30;;;39.60;;
68938;SDS011;59064;45.294;11.816;2023-12-20T05:00:05;68.60;;;41.10;;
68938;SDS011;59064;45.294;11.816;2023-12-20T05:02:34;64.10;;;38.70;;
68938;SDS011;59064;45.294;11.816;2023-12-20T05:05:01;71.10;;;42.80;;
68938;SDS011;59064;45.294;11.816;2023-12-20T05:07:26;65.10;;;38.90;;
68938;SDS011;59064;45.294;11.816;2023-12-20T05:09:51;71.60;;;42.10;;
68938;SDS011;59064;45.294;11.816;2023-12-20T05:12:17;67.80;;;43.20;;
68938;SDS011;59064;45.294;11.816;2023-12-20T05:14:43;79.20;;;47.70;;
68938;SDS011;59064;45.294;11.816;2023-12-20T05:17:08;78.80;;;45.40;;
68938;SDS011;59064;45.294;11.816;2023-12-20T05:19:33;68.30;;;40.30;;
68938;SDS011;59064;45.294;11.816;2023-12-20T05:22:02;57.10;;;34.30;;
68938;SDS011;59064;45.294;11.816;2023-12-20T05:24:27;59.10;;;33.90;;
68938;SDS011;59064;45.294;11.816;2023-12-20T05:26:53;54.30;;;31.30;;
68938;SDS011;59064;45.294;11.816;2023-12-20T05:29:19;58.80;;;33.90;;
68938;SDS011;59064;45.294;11.816;2023-12-20T05:31:44;56.50;;;31.90;;
68938;SDS011;59064;45.294;11.816;2023-12-20T05:34:10;53.50;;;31.60;;
68938;SDS011;59064;45.294;11.816;2023-12-20T05:36:36;54.20;;;30.60;;
68938;SDS011;59064;45.294;11.816;2023-12-20T05:39:02;54.50;;;33.40;;
68938;SDS011;59064;45.294;11.816;2023-12-20T05:41:29;59.20;;;35.70;;
68938;SDS011;59064;45.294;11.816;2023-12-20T05:43:54;49.90;;;30.50;;
68938;SDS011;59064;45.294;11.816;2023-12-20T05:46:20;51.30;;;29.70;;
68938;SDS011;59064;45.294;11.816;2023-12-20T05:48:46;51.20;;;31.80;;
68938;SDS011;59064;45.294;11.816;2023-12-20T05:51:12;50.70;;;31.70;;
68938;SDS011;59064;45.294;11.816;2023-12-20T05:53:38;53.60;;;32.80;;
68938;SDS011;59064;45.294;11.816;2023-12-20T05:56:03;58.60;;;33.80;;
68938;SDS011;59064;45.294;11.816;2023-12-20T05:58:29;54.20;;;34.50;;
68938;SDS011;59064;45.294;11.816;2023-12-20T06:00:55;58.90;;;35.50;;
68938;SDS011;59064;45.294;11.816;2023-12-20T06:03:20;49.30;;;30.40;;
68938;SDS011;59064;45.294;11.816;2023-12-20T06:05:46;54.20;;;29.50;;
68938;SDS011;59064;45.294;11.816;2023-12-20T06:08:12;52.10;;;32.60;;
68938;SDS011;59064;45.294;11.816;2023-12-20T06:10:38;61.90;;;37.80;;
68938;SDS011;59064;45.294;11.816;2023-12-20T06:13:03;56.70;;;35.70;;
68938;SDS011;59064;45.294;11.816;2023-12-20T06:15:29;59.10;;;37.60;;
68938;SDS011;59064;45.294;11.816;2023-12-20T06:17:55;52.30;;;33.10;;
68938;SDS011;59064;45.294;11.816;2023-12-20T06:20:20;51.80;;;33.80;;
68938;SDS011;59064;45.294;11.816;2023-12-20T06:22:46;51.20;;;34.30;;
68938;SDS011;59064;45.294;11.816;2023-12-20T06:25:12;58.70;;;36.00;;
68938;SDS011;59064;45.294;11.816;2023-12-20T06:27:37;58.30;;;35.40;;
68938;SDS011;59064;45.294;11.816;2023-12-20T06:30:03;57.40;;;35.20;;
68938;SDS011;59064;45.294;11.816;2023-12-20T06:32:29;56.40;;;35.20;;
68938;SDS011;59064;45.294;11.816;2023-12-20T06:34:54;55.20;;;34.20;;
68938;SDS011;59064;45.294;11.816;2023-12-20T06:37:20;55.10;;;34.90;;
68938;SDS011;59064;45.294;11.816;2023-12-20T06:39:45;53.00;;;33.40;;
68938;SDS011;59064;45.294;11.816;2023-12-20T06:42:12;45.80;;;28.80;;
68938;SDS011;59064;45.294;11.816;2023-12-20T06:44:38;47.20;;;28.50;;
68938;SDS011;59064;45.294;11.816;2023-12-20T06:47:04;48.80;;;32.30;;
68938;SDS011;59064;45.294;11.816;2023-12-20T06:49:29;53.20;;;33.10;;
68938;SDS011;59064;45.294;11.816;2023-12-20T06:51:55;46.00;;;30.40;;
68938;SDS011;59064;45.294;11.816;2023-12-20T06:54:20;54.20;;;32.60;;
68938;SDS011;59064;45.294;11.816;2023-12-20T06:56:46;60.50;;;33.00;;
68938;SDS011;59064;45.294;11.816;2023-12-20T06:59:11;47.90;;;31.00;;
68938;SDS011;59064;45.294;11.816;2023-12-20T07:01:37;55.80;;;31.90;;
68938;SDS011;59064;45.294;11.816;2023-12-20T07:04:03;47.20;;;30.50;;
68938;SDS011;59064;45.294;11.816;2023-12-20T07:06:29;49.20;;;31.90;;
68938;SDS011;59064;45.294;11.816;2023-12-20T07:08:54;49.70;;;32.10;;
68938;SDS011;59064;45.294;11.816;2023-12-20T07:11:20;53.90;;;32.00;;
68938;SDS011;59064;45.294;11.816;2023-12-20T07:13:46;48.00;;;29.80;;
68938;SDS011;59064;45.294;11.816;2023-12-20T07:16:11;49.60;;;31.70;;
68938;SDS011;59064;45.294;11.816;2023-12-20T07:18:37;45.70;;;30.90;;
68938;SDS011;59064;45.294;11.816;2023-12-20T07:21:02;52.20;;;32.70;;
68938;SDS011;59064;45.294;11.816;2023-12-20T07:23:28;48.40;;;30.70;;
68938;SDS011;59064;45.294;11.816;2023-12-20T07:25:54;45.00;;;29.00;;
68938;SDS011;59064;45.294;11.816;2023-12-20T07:28:19;48.30;;;29.20;;
68938;SDS011;59064;45.294;11.816;2023-12-20T07:30:45;49.30;;;31.60;;
68938;SDS011;59064;45.294;11.816;2023-12-20T07:33:11;47.00;;;29.70;;
68938;SDS011;59064;45.294;11.816;2023-12-20T07:35:37;45.40;;;30.70;;
68938;SDS011;59064;45.294;11.816;2023-12-20T07:38:03;45.10;;;31.00;;
68938;SDS011;59064;45.294;11.816;2023-12-20T07:40:29;43.60;;;28.50;;
68938;SDS011;59064;45.294;11.816;2023-12-20T07:42:54;39.90;;;26.70;;
68938;SDS011;59064;45.294;11.816;2023-12-20T07:45:20;43.70;;;28.40;;
68938;SDS011;59064;45.294;11.816;2023-12-20T07:47:45;48.60;;;29.70;;
68938;SDS011;59064;45.294;11.816;2023-12-20T07:50:11;43.40;;;27.90;;
68938;SDS011;59064;45.294;11.816;2023-12-20T07:52:36;72.80;;;42.00;;
68938;SDS011;59064;45.294;11.816;2023-12-20T07:55:02;52.20;;;31.90;;
68938;SDS011;59064;45.294;11.816;2023-12-20T07:57:31;46.80;;;28.20;;
68938;SDS011;59064;45.294;11.816;2023-12-20T07:59:56;44.80;;;30.50;;
68938;SDS011;59064;45.294;11.816;2023-12-20T08:02:22;42.60;;;29.00;;
68938;SDS011;59064;45.294;11.816;2023-12-20T08:04:47;44.60;;;27.30;;
68938;SDS011;59064;45.294;11.816;2023-12-20T08:07:12;45.60;;;29.10;;
68938;SDS011;59064;45.294;11.816;2023-12-20T08:09:38;43.60;;;28.20;;
68938;SDS011;59064;45.294;11.816;2023-12-20T08:12:03;48.80;;;30.00;;
68938;SDS011;59064;45.294;11.816;2023-12-20T08:14:29;46.90;;;29.60;;
68938;SDS011;59064;45.294;11.816;2023-12-20T08:16:54;45.40;;;29.00;;
68938;SDS011;59064;45.294;11.816;2023-12-20T08:19:20;49.30;;;30.70;;
68938;SDS011;59064;45.294;11.816;2023-12-20T08:21:45;42.30;;;27.00;;
68938;SDS011;59064;45.294;11.816;2023-12-20T08:24:11;44.10;;;28.00;;
68938;SDS011;59064;45.294;11.816;2023-12-20T08:26:36;43.50;;;28.90;;
68938;SDS011;59064;45.294;11.816;2023-12-20T08:29:02;41.90;;;27.90;;
68938;SDS011;59064;45.294;11.816;2023-12-20T08:31:27;43.80;;;27.80;;
68938;SDS011;59064;45.294;11.816;2023-12-20T08:33:53;45.70;;;30.20;;
68938;SDS011;59064;45.294;11.816;2023-12-20T08:36:19;40.80;;;27.60;;
68938;SDS011;59064;45.294;11.816;2023-12-20T08:38:47;42.10;;;27.10;;
68938;SDS011;59064;45.294;11.816;2023-12-20T08:41:13;41.20;;;26.90;;
68938;SDS011;59064;45.294;11.816;2023-12-20T08:43:38;47.20;;;28.70;;
68938;SDS011;59064;45.294;11.816;2023-12-20T08:46:07;44.90;;;27.90;;
68938;SDS011;59064;45.294;11.816;2023-12-20T08:48:34;42.10;;;26.30;;
68938;SDS011;59064;45.294;11.816;2023-12-20T08:51:00;45.90;;;30.10;;
68938;SDS011;59064;45.294;11.816;2023-12-20T08:53:26;46.50;;;31.40;;
68938;SDS011;59064;45.294;11.816;2023-12-20T08:55:51;44.90;;;28.70;;
68938;SDS011;59064;45.294;11.816;2023-12-20T08:58:17;49.70;;;32.10;;
68938;SDS011;59064;45.294;11.816;2023-12-20T09:00:43;44.40;;;28.70;;
68938;SDS011;59064;45.294;11.816;2023-12-20T09:03:08;42.90;;;27.10;;
68938;SDS011;59064;45.294;11.816;2023-12-20T09:05:35;47.00;;;30.40;;
68938;SDS011;59064;45.294;11.816;2023-12-20T09:08:00;48.40;;;32.80;;
68938;SDS011;59064;45.294;11.816;2023-12-20T09:10:26;39.10;;;27.80;;
68938;SDS011;59064;45.294;11.816;2023-12-20T09:12:51;40.40;;;24.90;;
68938;SDS011;59064;45.294;11.816;2023-12-20T09:15:21;43.80;;;28.70;;
68938;SDS011;59064;45.294;11.816;2023-12-20T09:17:48;47.80;;;31.40;;
68938;SDS011;59064;45.294;11.816;2023-12-20T09:20:13;46.50;;;32.00;;
68938;SDS011;59064;45.294;11.816;2023-12-20T09:22:39;41.40;;;28.70;;
68938;SDS011;59064;45.294;11.816;2023-12-20T09:25:05;45.40;;;30.30;;
68938;SDS011;59064;45.294;11.816;2023-12-20T09:27:30;47.50;;;31.20;;
68938;SDS011;59064;45.294;11.816;2023-12-20T09:29:56;44.00;;;29.40;;
68938;SDS011;59064;45.294;11.816;2023-12-20T09:32:21;48.50;;;33.00;;
68938;SDS011;59064;45.294;11.816;2023-12-20T09:34:47;49.00;;;31.50;;
68938;SDS011;59064;45.294;11.816;2023-12-20T09:37:13;42.40;;;26.40;;
68938;SDS011;59064;45.294;11.816;2023-12-20T09:39:38;44.50;;;29.60;;
68938;SDS011;59064;45.294;11.816;2023-12-20T09:42:04;41.40;;;28.20;;
68938;SDS011;59064;45.294;11.816;2023-12-20T09:44:31;43.30;;;28.40;;
68938;SDS011;59064;45.294;11.816;2023-12-20T09:47:04;52.80;;;35.10;;
68938;SDS011;59064;45.294;11.816;2023-12-20T09:49:30;44.20;;;28.00;;
68938;SDS011;59064;45.294;11.816;2023-12-20T09:51:56;44.90;;;30.30;;
68938;SDS011;59064;45.294;11.816;2023-12-20T09:54:22;48.30;;;30.40;;
68938;SDS011;59064;45.294;11.816;2023-12-20T09:56:49;43.40;;;29.00;;
68938;SDS011;59064;45.294;11.816;2023-12-20T09:59:15;47.30;;;32.40;;
68938;SDS011;59064;45.294;11.816;2023-12-20T10:01:41;45.10;;;28.50;;
68938;SDS011;59064;45.294;11.816;2023-12-20T10:04:09;36.20;;;23.50;;
68938;SDS011;59064;45.294;11.816;2023-12-20T10:06:40;38.30;;;24.80;;
68938;SDS011;59064;45.294;11.816;2023-12-20T10:09:07;44.50;;;29.70;;
68938;SDS011;59064;45.294;11.816;2023-12-20T10:11:35;38.40;;;24.20;;
68938;SDS011;59064;45.294;11.816;2023-12-20T10:14:02;41.60;;;28.10;;
68938;SDS011;59064;45.294;11.816;2023-12-20T10:16:28;40.10;;;26.90;;
68938;SDS011;59064;45.294;11.816;2023-12-20T10:18:54;38.70;;;26.60;;
68938;SDS011;59064;45.294;11.816;2023-12-20T10:21:21;44.80;;;27.90;;
68938;SDS011;59064;45.294;11.816;2023-12-20T10:23:51;40.90;;;27.10;;
68938;SDS011;59064;45.294;11.816;2023-12-20T10:26:22;37.10;;;25.40;;
68938;SDS011;59064;45.294;11.816;2023-12-20T10:28:55;48.10;;;30.00;;
68938;SDS011;59064;45.294;11.816;2023-12-20T10:31:29;34.70;;;23.90;;
68938;SDS011;59064;45.294;11.816;2023-12-20T10:33:59;34.20;;;23.80;;
68938;SDS011;59064;45.294;11.816;2023-12-20T10:36:26;34.90;;;24.30;;
68938;SDS011;59064;45.294;11.816;2023-12-20T10:38:53;36.70;;;24.20;;
68938;SDS011;59064;45.294;11.816;2023-12-20T10:41:23;34.20;;;22.60;;
68938;SDS011;59064;45.294;11.816;2023-12-20T10:44:00;34.10;;;23.70;;
68938;SDS011;59064;45.294;11.816;2023-12-20T10:46:26;35.50;;;22.50;;
68938;SDS011;59064;45.294;11.816;2023-12-20T10:48:57;38.50;;;25.60;;
68938;SDS011;59064;45.294;11.816;2023-12-20T10:51:23;44.00;;;26.50;;
68938;SDS011;59064;45.294;11.816;2023-12-20T10:53:52;57.00;;;35.20;;
68938;SDS011;59064;45.294;11.816;2023-12-20T10:56:19;40.00;;;26.20;;
68938;SDS011;59064;45.294;11.816;2023-12-20T10:58:45;37.70;;;27.60;;
68938;SDS011;59064;45.294;11.816;2023-12-20T11:01:13;43.50;;;28.40;;
68938;SDS011;59064;45.294;11.816;2023-12-20T11:03:44;42.00;;;28.20;;
68938;SDS011;59064;45.294;11.816;2023-12-20T11:06:18;37.70;;;25.10;;
68938;SDS011;59064;45.294;11.816;2023-12-20T11:09:03;47.60;;;28.90;;
68938;SDS011;59064;45.294;11.816;2023-12-20T11:11:46;38.60;;;23.90;;
68938;SDS011;59064;45.294;11.816;2023-12-20T11:17:20;41.40;;;27.50;;
68938;SDS011;59064;45.294;11.816;2023-12-20T11:22:21;34.80;;;23.90;;
68938;SDS011;59064;45.294;11.816;2023-12-20T11:24:47;34.10;;;22.20;;
68938;SDS011;59064;45.294;11.816;2023-12-20T11:27:13;31.40;;;21.50;;
68938;SDS011;59064;45.294;11.816;2023-12-20T11:29:40;36.50;;;25.10;;
68938;SDS011;59064;45.294;11.816;2023-12-20T11:34:53;39.10;;;26.30;;
68938;SDS011;59064;45.294;11.816;2023-12-20T11:37:28;39.50;;;27.40;;
68938;SDS011;59064;45.294;11.816;2023-12-20T11:40:00;45.00;;;30.70;;
68938;SDS011;59064;45.294;11.816;2023-12-20T11:42:27;42.90;;;27.20;;
68938;SDS011;59064;45.294;11.816;2023-12-20T11:44:53;40.60;;;27.50;;
68938;SDS011;59064;45.294;11.816;2023-12-20T11:47:18;40.20;;;28.20;;
68938;SDS011;59064;45.294;11.816;2023-12-20T11:49:46;37.40;;;25.60;;
68938;SDS011;59064;45.294;11.816;2023-12-20T11:52:13;41.00;;;28.30;;
68938;SDS011;59064;45.294;11.816;2023-12-20T11:54:39;37.80;;;26.90;;
68938;SDS011;59064;45.294;11.816;2023-12-20T11:57:04;43.70;;;27.90;;
68938;SDS011;59064;45.294;11.816;2023-12-20T11:59:30;36.40;;;25.40;;
68938;SDS011;59064;45.294;11.816;2023-12-20T12:01:56;32.60;;;23.20;;
68938;SDS011;59064;45.294;11.816;2023-12-20T12:04:25;35.60;;;25.40;;
68938;SDS011;59064;45.294;11.816;2023-12-20T12:06:52;35.60;;;24.40;;
68938;SDS011;59064;45.294;11.816;2023-12-20T12:09:17;37.10;;;25.60;;
68938;SDS011;59064;45.294;11.816;2023-12-20T12:11:43;38.40;;;25.80;;
68938;SDS011;59064;45.294;11.816;2023-12-20T12:14:08;36.20;;;24.60;;
68938;SDS011;59064;45.294;11.816;2023-12-20T12:16:34;35.50;;;24.30;;
68938;SDS011;59064;45.294;11.816;2023-12-20T12:19:00;36.20;;;24.30;;
68938;SDS011;59064;45.294;11.816;2023-12-20T12:21:26;34.60;;;23.60;;
68938;SDS011;59064;45.294;11.816;2023-12-20T12:23:51;32.80;;;22.10;;
68938;SDS011;59064;45.294;11.816;2023-12-20T12:26:18;36.00;;;24.90;;
68938;SDS011;59064;45.294;11.816;2023-12-20T12:28:44;41.90;;;28.50;;
68938;SDS011;59064;45.294;11.816;2023-12-20T12:31:13;38.20;;;27.30;;
68938;SDS011;59064;45.294;11.816;2023-12-20T12:33:42;36.10;;;24.50;;
68938;SDS011;59064;45.294;11.816;2023-12-20T12:36:09;34.90;;;23.00;;
68938;SDS011;59064;45.294;11.816;2023-12-20T12:38:36;37.80;;;25.40;;
68938;SDS011;59064;45.294;11.816;2023-12-20T12:41:02;38.00;;;24.00;;
68938;SDS011;59064;45.294;11.816;2023-12-20T12:43:27;34.80;;;24.60;;
68938;SDS011;59064;45.294;11.816;2023-12-20T12:45:53;44.30;;;26.50;;
68938;SDS011;59064;45.294;11.816;2023-12-20T12:48:19;41.90;;;26.90;;
68938;SDS011;59064;45.294;11.816;2023-12-20T12:50:45;30.50;;;20.90;;
68938;SDS011;59064;45.294;11.816;2023-12-20T12:53:11;33.00;;;21.60;;
68938;SDS011;59064;45.294;11.816;2023-12-20T12:55:37;34.20;;;22.00;;
68938;SDS011;59064;45.294;11.816;2023-12-20T12:58:02;32.10;;;22.90;;
68938;SDS011;59064;45.294;11.816;2023-12-20T13:00:28;34.60;;;24.40;;
68938;SDS011;59064;45.294;11.816;2023-12-20T13:02:54;34.70;;;22.90;;
68938;SDS011;59064;45.294;11.816;2023-12-20T13:05:19;32.80;;;22.40;;
68938;SDS011;59064;45.294;11.816;2023-12-20T13:07:45;31.00;;;20.50;;
68938;SDS011;59064;45.294;11.816;2023-12-20T13:10:11;30.40;;;21.50;;
68938;SDS011;59064;45.294;11.816;2023-12-20T13:12:36;32.00;;;20.50;;
68938;SDS011;59064;45.294;11.816;2023-12-20T13:15:02;32.30;;;21.60;;
68938;SDS011;59064;45.294;11.816;2023-12-20T13:17:29;34.80;;;22.10;;
68938;SDS011;59064;45.294;11.816;2023-12-20T13:19:55;40.70;;;25.10;;
68938;SDS011;59064;45.294;11.816;2023-12-20T13:22:20;32.60;;;21.30;;
68938;SDS011;59064;45.294;11.816;2023-12-20T13:24:46;28.60;;;20.90;;
68938;SDS011;59064;45.294;11.816;2023-12-20T13:27:11;28.90;;;19.90;;
68938;SDS011;59064;45.294;11.816;2023-12-20T13:29:37;33.30;;;21.50;;
68938;SDS011;59064;45.294;11.816;2023-12-20T13:32:02;30.60;;;21.50;;
68938;SDS011;59064;45.294;11.816;2023-12-20T13:34:28;32.70;;;20.30;;
68938;SDS011;59064;45.294;11.816;2023-12-20T13:36:54;30.80;;;20.70;;
68938;SDS011;59064;45.294;11.816;2023-12-20T13:39:20;29.00;;;19.90;;
68938;SDS011;59064;45.294;11.816;2023-12-20T13:41:46;28.90;;;19.70;;
68938;SDS011;59064;45.294;11.816;2023-12-20T13:44:12;28.50;;;19.80;;
68938;SDS011;59064;45.294;11.816;2023-12-20T13:46:38;29.70;;;20.00;;
68938;SDS011;59064;45.294;11.816;2023-12-20T13:49:04;28.30;;;19.50;;
68938;SDS011;59064;45.294;11.816;2023-12-20T13:51:30;31.40;;;22.40;;
68938;SDS011;59064;45.294;11.816;2023-12-20T13:53:55;30.70;;;19.60;;
68938;SDS011;59064;45.294;11.816;2023-12-20T13:56:21;39.10;;;24.00;;
68938;SDS011;59064;45.294;11.816;2023-12-20T13:58:48;35.70;;;22.20;;
68938;SDS011;59064;45.294;11.816;2023-12-20T14:01:13;29.60;;;21.10;;
68938;SDS011;59064;45.294;11.816;2023-12-20T14:03:39;36.30;;;20.70;;
68938;SDS011;59064;45.294;11.816;2023-12-20T14:06:06;32.70;;;21.40;;
68938;SDS011;59064;45.294;11.816;2023-12-20T14:08:32;29.30;;;20.00;;
68938;SDS011;59064;45.294;11.816;2023-12-20T14:10:57;29.40;;;18.60;;